createdAt,value
2019-03-30T00:01:10.353Z,28.55
2019-03-30T00:03:39.551Z,30.20
2019-03-30T00:06:08.779Z,27.45
2019-03-30T00:08:37.980Z,26.95
2019-03-30T00:11:07.211Z,29.18
2019-03-30T00:13:36.413Z,27.27
2019-03-30T00:16:05.614Z,29.77
2019-03-30T00:18:35.195Z,29.72
2019-03-30T00:21:04.496Z,31.05
2019-03-30T00:23:33.704Z,30.12
2019-03-30T00:26:03.320Z,31.90
2019-03-30T00:28:32.869Z,29.72
2019-03-30T00:31:02.384Z,27.73
2019-03-30T00:33:31.624Z,27.70
2019-03-30T00:36:00.927Z,25.72
2019-03-30T00:38:30.792Z,26.45
2019-03-30T00:41:00.029Z,29.80
2019-03-30T00:43:29.596Z,29.70
2019-03-30T00:45:58.822Z,26.17
2019-03-30T00:48:28.016Z,27.85
2019-03-30T00:50:57.294Z,34.10
2019-03-30T00:53:27.112Z,29.00
2019-03-30T00:55:56.725Z,26.30
2019-03-30T00:58:25.978Z,27.80
2019-03-30T01:00:55.184Z,26.20
2019-03-30T01:03:24.402Z,23.35
2019-03-30T01:05:54.090Z,26.23
2019-03-30T01:08:23.285Z,24.52
2019-03-30T01:10:52.583Z,29.27
2019-03-30T01:13:21.815Z,27.22
2019-03-30T01:15:51.028Z,26.55
2019-03-30T01:18:20.229Z,26.62
2019-03-30T01:20:49.457Z,29.42
2019-03-30T01:23:18.659Z,29.20
2019-03-30T01:25:47.875Z,30.30
2019-03-30T01:28:17.242Z,30.00
2019-03-30T01:30:46.453Z,30.68
2019-03-30T01:33:15.674Z,29.40
2019-03-30T01:35:44.964Z,28.38
2019-03-30T01:38:14.197Z,30.37
2019-03-30T01:40:43.430Z,24.75
2019-03-30T01:43:12.648Z,25.60
2019-03-30T01:45:41.851Z,25.27
2019-03-30T01:48:11.091Z,28.10
2019-03-30T01:50:40.300Z,24.45
2019-03-30T01:53:09.501Z,24.35
2019-03-30T01:55:38.728Z,24.57
2019-03-30T01:58:07.929Z,26.48
2019-03-30T02:00:37.128Z,24.35
2019-03-30T02:03:06.361Z,23.62
2019-03-30T02:05:35.584Z,23.77
2019-03-30T02:08:04.784Z,26.37
2019-03-30T02:10:46.274Z,26.20
2019-03-30T02:13:15.643Z,25.57
2019-03-30T02:15:44.939Z,28.98
2019-03-30T02:18:14.170Z,28.07
2019-03-30T02:20:45.745Z,25.62
2019-03-30T02:23:15.570Z,24.02
2019-03-30T02:25:44.853Z,28.25
2019-03-30T02:28:14.085Z,31.90
2019-03-30T02:30:43.379Z,24.67
2019-03-30T02:33:12.595Z,28.38
2019-03-30T02:35:42.099Z,26.65
2019-03-30T02:38:11.339Z,28.30
2019-03-30T02:40:41.091Z,28.60
2019-03-30T02:43:10.319Z,26.55
2019-03-30T02:45:39.573Z,26.42
2019-03-30T02:48:08.794Z,29.80
2019-03-30T02:50:49.524Z,27.62
2019-03-30T02:53:08.982Z,30.55
2019-03-30T02:55:38.246Z,31.93
2019-03-30T02:58:07.493Z,30.92
2019-03-30T03:00:37.154Z,30.12
2019-03-30T03:03:06.373Z,29.15
2019-03-30T03:05:35.604Z,29.70
2019-03-30T03:08:04.805Z,27.73
2019-03-30T03:10:34.050Z,26.95
2019-03-30T03:13:03.712Z,30.27
2019-03-30T03:15:32.903Z,30.25
2019-03-30T03:18:02.156Z,31.15
2019-03-30T03:20:31.687Z,29.82
2019-03-30T03:23:01.212Z,27.40
2019-03-30T03:25:30.773Z,30.40
2019-03-30T03:27:59.974Z,28.62
2019-03-30T03:30:29.201Z,31.27
2019-03-30T03:32:58.489Z,30.68
2019-03-30T03:35:28.025Z,29.98
2019-03-30T03:37:57.259Z,30.55
2019-03-30T03:40:26.462Z,31.95
2019-03-30T03:42:56.036Z,31.42
2019-03-30T03:45:25.273Z,31.50
2019-03-30T03:47:54.512Z,31.20
2019-03-30T03:50:41.902Z,29.25
2019-03-30T03:53:13.416Z,30.35
2019-03-30T03:55:42.982Z,32.45
2019-03-30T03:58:12.878Z,30.60
2019-03-30T04:00:42.884Z,26.20
2019-03-30T04:03:14.011Z,25.48
2019-03-30T04:05:46.926Z,27.73
2019-03-30T04:08:16.508Z,28.92
2019-03-30T04:10:49.959Z,25.95
2019-03-30T04:13:20.884Z,27.87
2019-03-30T04:15:50.577Z,31.45
2019-03-30T04:18:19.877Z,30.10
2019-03-30T04:20:49.204Z,29.85
2019-03-30T04:23:18.563Z,30.85
2019-03-30T04:25:47.860Z,31.23
2019-03-30T04:28:17.152Z,30.68
2019-03-30T04:30:46.393Z,28.85
2019-03-30T04:33:15.604Z,26.00
2019-03-30T04:35:44.815Z,27.50
2019-03-30T04:38:14.664Z,25.35
2019-03-30T04:40:44.063Z,27.62
2019-03-30T04:43:13.297Z,26.62
2019-03-30T04:45:42.520Z,29.55
2019-03-30T04:48:11.720Z,27.95
2019-03-30T04:50:40.961Z,30.12
2019-03-30T04:53:10.233Z,28.83
2019-03-30T04:55:40.028Z,30.20
2019-03-30T04:58:09.642Z,31.40
2019-03-30T05:00:38.942Z,28.12
2019-03-30T05:03:08.183Z,28.00
2019-03-30T05:05:37.383Z,28.15
2019-03-30T05:08:06.628Z,29.75
2019-03-30T05:10:35.876Z,26.40
2019-03-30T05:13:05.098Z,26.42
2019-03-30T05:15:34.353Z,27.70
2019-03-30T05:18:03.609Z,27.42
2019-03-30T05:20:33.243Z,29.15
2019-03-30T05:23:02.462Z,25.23
2019-03-30T05:25:31.687Z,27.00
2019-03-30T05:28:00.891Z,28.52
2019-03-30T05:30:30.124Z,34.10
2019-03-30T05:33:05.539Z,32.80
2019-03-30T05:35:30.286Z,32.40
2019-03-30T05:38:01.422Z,33.78
2019-03-30T05:40:30.458Z,33.45
2019-03-30T05:42:59.669Z,32.55
2019-03-30T05:45:28.977Z,34.48
2019-03-30T05:47:58.179Z,33.18
2019-03-30T05:50:27.385Z,35.85
2019-03-30T05:52:56.614Z,34.73
2019-03-30T05:55:25.851Z,33.78
2019-03-30T05:57:55.062Z,34.70
2019-03-30T06:00:25.230Z,34.15
2019-03-30T06:02:54.447Z,33.85
2019-03-30T06:05:23.644Z,32.95
2019-03-30T06:07:52.886Z,35.13
2019-03-30T06:10:22.095Z,36.65
2019-03-30T06:12:51.321Z,39.75
2019-03-30T06:15:20.539Z,35.52
2019-03-30T06:17:49.752Z,36.98
2019-03-30T06:20:19.047Z,38.42
2019-03-30T06:22:48.252Z,37.65
2019-03-30T06:25:17.455Z,33.38
2019-03-30T06:27:46.675Z,39.35
2019-03-30T06:30:17.990Z,38.30
2019-03-30T06:32:47.573Z,39.60
2019-03-30T06:35:16.877Z,33.38
2019-03-30T06:37:46.120Z,32.17
2019-03-30T06:40:15.592Z,34.98
2019-03-30T06:42:44.819Z,34.03
2019-03-30T06:45:14.217Z,35.33
2019-03-30T06:47:43.430Z,31.97
2019-03-30T06:50:13.303Z,30.55
2019-03-30T06:52:56.390Z,30.17
2019-03-30T06:55:13.542Z,32.00
2019-03-30T06:57:42.746Z,32.10
2019-03-30T07:00:12.681Z,32.70
2019-03-30T07:02:43.474Z,29.85
2019-03-30T07:05:12.984Z,31.52
2019-03-30T07:07:45.486Z,29.60
2019-03-30T07:10:15.358Z,36.00
2019-03-30T07:12:46.078Z,29.80
2019-03-30T07:15:15.353Z,27.73
2019-03-30T07:17:48.432Z,27.90
2019-03-30T07:20:35.927Z,26.52
2019-03-30T07:23:11.728Z,27.32
2019-03-30T07:25:36.344Z,26.55
2019-03-30T07:28:05.747Z,28.77
2019-03-30T07:30:34.980Z,25.60
2019-03-30T07:33:04.300Z,24.37
2019-03-30T07:35:33.501Z,26.68
2019-03-30T07:38:02.745Z,28.52
2019-03-30T07:40:33.911Z,29.77
2019-03-30T07:43:02.905Z,23.98
2019-03-30T07:45:32.267Z,23.73
2019-03-30T07:48:01.417Z,23.20
2019-03-30T07:50:30.638Z,22.27
2019-03-30T07:53:00.124Z,21.77
2019-03-30T07:55:29.354Z,19.07
2019-03-30T07:57:58.822Z,20.32
2019-03-30T08:00:30.860Z,17.50
2019-03-30T08:02:58.987Z,19.87
2019-03-30T08:05:28.202Z,17.70
2019-03-30T08:07:57.444Z,19.40
2019-03-30T08:10:26.658Z,19.05
2019-03-30T08:12:55.886Z,17.10
2019-03-30T08:15:25.127Z,16.70
2019-03-30T08:17:54.366Z,17.57
2019-03-30T08:20:23.591Z,18.10
2019-03-30T08:22:52.856Z,16.40
2019-03-30T08:25:22.080Z,16.40
2019-03-30T08:27:51.323Z,17.15
2019-03-30T08:30:20.662Z,15.75
2019-03-30T08:32:49.881Z,16.15
2019-03-30T08:35:19.092Z,16.48
2019-03-30T08:37:48.344Z,15.95
2019-03-30T08:40:17.551Z,15.43
2019-03-30T08:42:46.798Z,16.15
2019-03-30T08:45:16.104Z,15.03
2019-03-30T08:47:45.350Z,16.40
2019-03-30T08:50:14.718Z,16.27
2019-03-30T08:52:43.943Z,16.65
2019-03-30T08:55:13.463Z,15.98
2019-03-30T08:57:42.685Z,15.93
2019-03-30T09:00:12.075Z,15.10
2019-03-30T09:02:41.281Z,14.60
2019-03-30T09:05:10.667Z,14.25
2019-03-30T09:07:39.873Z,14.98
2019-03-30T09:10:09.547Z,16.17
2019-03-30T09:12:39.074Z,13.70
2019-03-30T09:15:08.693Z,15.40
2019-03-30T09:17:38.024Z,15.30
2019-03-30T09:20:08.744Z,15.45
2019-03-30T09:22:38.000Z,14.25
2019-03-30T09:25:07.425Z,15.60
2019-03-30T09:27:39.353Z,13.85
2019-03-30T09:30:12.486Z,15.35
2019-03-30T09:35:10.819Z,16.15
2019-03-30T09:37:40.076Z,15.48
2019-03-30T09:40:09.536Z,14.95
2019-03-30T09:42:39.105Z,14.58
2019-03-30T09:45:09.534Z,13.70
2019-03-30T09:47:38.825Z,15.68
2019-03-30T09:50:09.464Z,15.53
2019-03-30T09:52:38.666Z,15.63
2019-03-30T09:55:08.186Z,15.88
2019-03-30T09:57:37.399Z,15.93
2019-03-30T10:00:08.276Z,15.20
2019-03-30T10:02:37.514Z,15.05
2019-03-30T10:05:06.892Z,15.48
2019-03-30T10:07:36.104Z,16.27
2019-03-30T10:10:06.080Z,15.78
2019-03-30T10:12:35.293Z,15.93
2019-03-30T10:15:04.978Z,15.55
2019-03-30T10:17:34.193Z,15.53
2019-03-30T10:20:04.982Z,16.10
2019-03-30T10:22:34.641Z,15.72
2019-03-30T10:25:04.019Z,15.50
2019-03-30T10:27:33.228Z,15.35
2019-03-30T10:30:02.463Z,15.75
2019-03-30T10:32:31.676Z,14.15
2019-03-30T10:35:00.890Z,15.43
2019-03-30T10:37:30.123Z,15.78
2019-03-30T10:39:59.336Z,14.80
2019-03-30T10:42:28.587Z,15.20
2019-03-30T10:44:57.819Z,14.38
2019-03-30T10:47:27.034Z,15.13
2019-03-30T10:49:56.263Z,14.95
2019-03-30T10:52:25.781Z,13.62
2019-03-30T10:54:55.019Z,14.87
2019-03-30T10:57:24.300Z,14.03
2019-03-30T10:59:53.453Z,13.45
2019-03-30T11:02:22.700Z,14.60
2019-03-30T11:04:52.193Z,14.23
2019-03-30T11:07:22.025Z,15.65
2019-03-30T11:09:51.264Z,14.87
2019-03-30T11:13:16.090Z,11.75
2019-03-30T11:15:45.714Z,12.53
2019-03-30T11:18:15.270Z,14.53
2019-03-30T11:20:44.494Z,13.35
2019-03-30T11:23:13.709Z,13.38
2019-03-30T11:25:43.245Z,13.95
2019-03-30T11:28:14.539Z,13.35
2019-03-30T11:30:49.162Z,13.50
2019-03-30T11:33:21.603Z,14.07
2019-03-30T11:35:50.861Z,13.22
2019-03-30T11:38:20.500Z,12.65
2019-03-30T11:40:50.105Z,12.43
2019-03-30T11:43:19.320Z,12.53
2019-03-30T11:45:48.935Z,12.50
2019-03-30T11:48:20.421Z,13.22
2019-03-30T11:50:49.685Z,13.05
2019-03-30T11:53:18.906Z,13.78
2019-03-30T11:55:48.518Z,13.55
2019-03-30T11:58:17.782Z,13.55
2019-03-30T12:00:46.990Z,13.35
2019-03-30T12:03:16.212Z,12.82
2019-03-30T12:05:46.079Z,12.85
2019-03-30T12:08:16.211Z,15.25
2019-03-30T12:10:45.711Z,14.07
2019-03-30T12:13:14.957Z,14.35
2019-03-30T12:15:44.517Z,11.70
2019-03-30T12:18:13.749Z,10.18
2019-03-30T12:20:43.018Z,9.05
2019-03-30T12:23:12.215Z,8.60
2019-03-30T12:25:41.509Z,9.28
2019-03-30T12:28:12.494Z,9.13
2019-03-30T12:30:45.575Z,7.97
2019-03-30T12:33:19.975Z,8.95
2019-03-30T12:35:57.067Z,8.48
2019-03-30T12:38:30.923Z,8.40
2019-03-30T12:41:00.265Z,7.65
2019-03-30T12:43:29.494Z,7.78
2019-03-30T12:45:59.392Z,9.18
2019-03-30T12:48:32.533Z,8.75
2019-03-30T12:51:05.796Z,9.58
2019-03-30T12:53:49.173Z,10.63
2019-03-30T12:56:08.998Z,9.43
2019-03-30T12:58:37.439Z,9.20
2019-03-30T13:01:06.657Z,8.88
2019-03-30T13:03:38.365Z,9.10
2019-03-30T13:06:07.688Z,9.20
2019-03-30T13:08:36.925Z,8.60
2019-03-30T13:11:06.141Z,7.78
2019-03-30T13:13:35.350Z,8.28
2019-03-30T13:16:04.663Z,8.53
2019-03-30T13:18:33.896Z,7.53
2019-03-30T13:21:03.127Z,7.85
2019-03-30T13:23:32.336Z,8.43
2019-03-30T13:26:03.876Z,9.25
2019-03-30T13:28:32.510Z,10.23
2019-03-30T13:31:01.715Z,9.93
2019-03-30T13:33:30.943Z,9.05
2019-03-30T13:36:00.179Z,9.08
2019-03-30T13:38:29.383Z,9.28
2019-03-30T13:40:58.600Z,9.15
2019-03-30T13:43:27.834Z,9.63
2019-03-30T13:45:57.045Z,9.90
2019-03-30T13:48:26.252Z,9.28
2019-03-30T13:50:55.521Z,10.53
2019-03-30T13:53:24.734Z,9.88
2019-03-30T13:55:53.976Z,11.08
2019-03-30T13:58:23.218Z,10.30
2019-03-30T14:00:52.389Z,9.28
2019-03-30T14:03:21.639Z,10.80
2019-03-30T14:05:50.844Z,11.68
2019-03-30T14:08:20.086Z,11.75
2019-03-30T14:10:49.314Z,10.48
2019-03-30T14:13:18.529Z,9.15
2019-03-30T14:15:47.767Z,9.25
2019-03-30T14:18:16.980Z,9.50
2019-03-30T14:20:46.205Z,9.80
2019-03-30T14:23:15.447Z,9.23
2019-03-30T14:25:44.681Z,9.00
2019-03-30T14:28:13.902Z,8.40
2019-03-30T14:30:43.116Z,7.92
2019-03-30T14:33:12.324Z,8.50
2019-03-30T14:35:43.722Z,8.80
2019-03-30T14:38:13.110Z,9.25
2019-03-30T14:40:42.325Z,9.35
2019-03-30T14:43:11.563Z,9.68
2019-03-30T14:45:40.799Z,8.83
2019-03-30T14:48:10.133Z,8.60
2019-03-30T14:50:39.345Z,9.80
2019-03-30T14:53:08.587Z,9.85
2019-03-30T14:55:39.593Z,10.50
2019-03-30T14:58:08.730Z,12.75
2019-03-30T15:00:38.061Z,10.80
2019-03-30T15:03:07.487Z,10.13
2019-03-30T15:05:36.724Z,10.50
2019-03-30T15:08:05.947Z,12.23
2019-03-30T15:10:35.213Z,11.43
2019-03-30T15:13:04.512Z,11.22
2019-03-30T15:15:34.586Z,11.93
2019-03-30T15:18:04.003Z,11.40
2019-03-30T15:20:33.231Z,11.60
2019-03-30T15:23:02.460Z,10.88
2019-03-30T15:25:31.699Z,11.73
2019-03-30T15:28:00.949Z,10.30
2019-03-30T15:30:30.174Z,11.78
2019-03-30T15:32:59.405Z,11.18
2019-03-30T15:35:29.148Z,11.50
2019-03-30T15:37:58.432Z,12.55
2019-03-30T15:40:27.608Z,11.08
2019-03-30T15:42:56.820Z,13.30
2019-03-30T15:45:26.044Z,12.03
2019-03-30T15:47:55.297Z,12.65
2019-03-30T15:50:24.607Z,12.07
2019-03-30T15:52:53.902Z,13.28
2019-03-30T15:55:23.149Z,13.68
2019-03-30T15:57:52.375Z,13.80
2019-03-30T16:00:21.669Z,13.75
2019-03-30T16:02:50.904Z,13.15
2019-03-30T16:05:20.125Z,12.23
2019-03-30T16:07:49.356Z,13.95
2019-03-30T16:10:18.586Z,13.55
2019-03-30T16:12:47.789Z,13.90
2019-03-30T16:15:17.120Z,14.15
2019-03-30T16:17:46.331Z,13.40
2019-03-30T16:20:16.219Z,14.38
2019-03-30T16:22:45.706Z,15.48
2019-03-30T16:25:15.286Z,15.32
2019-03-30T16:27:44.932Z,14.47
2019-03-30T16:30:14.819Z,16.25
2019-03-30T16:32:44.355Z,15.40
2019-03-30T16:35:13.602Z,15.05
2019-03-30T16:37:42.817Z,15.10
2019-03-30T16:40:12.211Z,16.25
2019-03-30T16:42:41.460Z,15.70
2019-03-30T16:45:11.344Z,15.32
2019-03-30T16:47:40.587Z,14.78
2019-03-30T16:50:10.387Z,15.32
2019-03-30T16:52:41.134Z,14.13
2019-03-30T16:55:10.824Z,16.12
2019-03-30T16:57:43.799Z,16.40
2019-03-30T17:00:11.870Z,16.10
2019-03-30T17:02:41.129Z,15.85
2019-03-30T17:05:10.938Z,16.17
2019-03-30T17:07:40.644Z,16.87
2019-03-30T17:10:11.045Z,16.65
2019-03-30T17:12:40.618Z,17.02
2019-03-30T17:15:09.993Z,17.40
2019-03-30T17:17:39.237Z,16.70
2019-03-30T17:20:08.860Z,18.52
2019-03-30T17:22:38.109Z,17.32
2019-03-30T17:25:07.955Z,16.75
2019-03-30T17:27:37.216Z,17.60
2019-03-30T17:30:07.645Z,17.57
2019-03-30T17:32:36.888Z,17.87
2019-03-30T17:35:07.583Z,18.80
2019-03-30T17:37:37.154Z,20.12
2019-03-30T17:40:07.888Z,20.02
2019-03-30T17:42:38.976Z,21.33
2019-03-30T17:45:10.085Z,20.30
2019-03-30T17:47:39.299Z,21.30
2019-03-30T17:50:09.359Z,22.00
2019-03-30T17:52:38.573Z,22.62
2019-03-30T17:55:08.515Z,21.15
2019-03-30T17:57:37.864Z,23.83
2019-03-30T18:00:09.068Z,22.25
2019-03-30T18:02:38.295Z,22.32
2019-03-30T18:05:08.162Z,23.70
2019-03-30T18:07:37.473Z,24.32
2019-03-30T18:10:07.051Z,24.12
2019-03-30T18:12:36.320Z,22.95
2019-03-30T18:15:06.157Z,21.75
2019-03-30T18:17:35.373Z,23.38
2019-03-30T18:20:05.664Z,23.42
2019-03-30T18:22:35.215Z,23.87
2019-03-30T18:25:05.021Z,25.12
2019-03-30T18:27:34.561Z,25.25
2019-03-30T18:30:04.154Z,25.82
2019-03-30T18:32:33.851Z,26.37
2019-03-30T18:35:03.985Z,25.68
2019-03-30T18:37:35.063Z,28.40
2019-03-30T18:40:05.050Z,27.52
2019-03-30T18:42:34.613Z,25.32
2019-03-30T18:45:05.485Z,28.25
2019-03-30T18:47:34.716Z,28.62
2019-03-30T18:50:04.182Z,27.30
2019-03-30T18:52:33.550Z,29.55
2019-03-30T18:55:02.937Z,27.82
2019-03-30T18:57:32.139Z,29.00
2019-03-30T19:00:01.377Z,27.67
2019-03-30T19:02:30.591Z,26.93
2019-03-30T19:04:59.844Z,25.82
2019-03-30T19:07:29.068Z,27.13
2019-03-30T19:10:19.549Z,29.82
2019-03-30T19:12:48.724Z,29.48
2019-03-30T19:15:18.262Z,72.72
2019-03-30T19:17:47.463Z,63.80
2019-03-30T19:20:16.713Z,48.90
2019-03-30T19:22:45.943Z,39.38
2019-03-30T19:25:15.308Z,37.45
2019-03-30T19:27:44.513Z,48.35
2019-03-30T19:30:14.553Z,59.98
2019-03-30T19:32:43.821Z,37.40
2019-03-30T19:35:13.633Z,42.95
2019-03-30T19:37:42.838Z,35.08
2019-03-30T19:40:12.236Z,32.03
2019-03-30T19:42:41.484Z,31.50
2019-03-30T19:45:11.225Z,32.05
2019-03-30T19:47:40.468Z,32.08
2019-03-30T19:50:10.259Z,32.98
2019-03-30T19:52:40.465Z,35.48
2019-03-30T19:55:09.948Z,35.75
2019-03-30T19:57:39.157Z,47.30
2019-03-30T20:00:09.374Z,62.27
2019-03-30T20:02:38.589Z,57.15
2019-03-30T20:05:09.525Z,52.90
2019-03-30T20:07:38.759Z,36.80
2019-03-30T20:10:09.002Z,34.55
2019-03-30T20:12:38.331Z,35.65
2019-03-30T20:15:08.497Z,35.25
2019-03-30T20:17:37.887Z,43.40
2019-03-30T20:20:08.640Z,42.25
2019-03-30T20:22:37.862Z,36.90
2019-03-30T20:25:08.025Z,34.27
2019-03-30T20:27:37.278Z,32.15
2019-03-30T20:30:09.392Z,40.75
2019-03-30T20:32:38.715Z,36.17
2019-03-30T20:35:09.410Z,36.80
2019-03-30T20:37:38.969Z,35.88
2019-03-30T20:40:09.561Z,33.28
2019-03-30T20:42:38.777Z,30.77
2019-03-30T20:45:08.713Z,28.80
2019-03-30T20:47:38.241Z,30.80
2019-03-30T20:50:08.792Z,30.62
2019-03-30T20:52:38.010Z,31.97
2019-03-30T20:55:07.810Z,35.10
2019-03-30T20:57:37.022Z,50.43
2019-03-30T21:00:07.495Z,33.45
2019-03-30T21:02:36.777Z,33.10
2019-03-30T21:05:06.596Z,34.58
2019-03-30T21:07:35.878Z,32.17
2019-03-30T21:10:06.247Z,32.63
2019-03-30T21:12:35.483Z,33.28
2019-03-30T21:15:06.367Z,33.35
2019-03-30T21:17:35.612Z,31.12
2019-03-30T21:20:06.020Z,30.10
2019-03-30T21:22:35.612Z,30.08
2019-03-30T21:25:05.774Z,42.38
2019-03-30T21:27:35.008Z,29.77
2019-03-30T21:30:05.435Z,30.75
2019-03-30T21:32:34.969Z,31.20
2019-03-30T21:35:04.593Z,32.60
2019-03-30T21:37:33.809Z,36.70
2019-03-30T21:40:03.033Z,54.23
2019-03-30T21:42:32.245Z,68.92
2019-03-30T21:45:01.552Z,64.00
2019-03-30T21:47:30.899Z,67.35
2019-03-30T21:50:00.376Z,62.13
2019-03-30T21:52:29.703Z,66.80
2019-03-30T21:54:58.949Z,69.47
2019-03-30T21:57:28.152Z,60.10
2019-03-30T22:00:09.120Z,56.58
2019-03-30T22:02:28.330Z,71.25
2019-03-30T22:04:57.539Z,73.92
2019-03-30T22:07:26.798Z,148.65
2019-03-30T22:09:57.112Z,48.83
2019-03-30T22:12:26.332Z,54.63
2019-03-30T22:14:55.931Z,53.68
2019-03-30T22:17:25.179Z,71.53
2019-03-30T22:19:54.413Z,63.75
2019-03-30T22:22:23.657Z,48.80
2019-03-30T22:24:52.878Z,45.35
2019-03-30T22:27:22.111Z,47.08
2019-03-30T22:29:51.318Z,43.40
2019-03-30T22:32:20.531Z,41.98
2019-03-30T22:34:49.781Z,41.00
2019-03-30T22:37:18.974Z,44.05
2019-03-30T22:39:48.206Z,42.48
2019-03-30T22:42:17.454Z,40.67
2019-03-30T22:44:46.664Z,40.65
2019-03-30T22:47:15.902Z,40.92
2019-03-30T22:49:45.116Z,39.50
2019-03-30T22:52:14.333Z,43.78
2019-03-30T22:54:43.589Z,46.45
2019-03-30T22:57:12.790Z,43.05
2019-03-30T22:59:41.989Z,41.08
2019-03-30T23:02:11.224Z,41.60
2019-03-30T23:04:40.425Z,38.63
2019-03-30T23:07:09.928Z,40.98
2019-03-30T23:09:39.445Z,43.00
2019-03-30T23:12:08.657Z,43.60
2019-03-30T23:14:37.874Z,51.13
2019-03-30T23:17:07.201Z,44.15
2019-03-30T23:19:36.399Z,46.33
2019-03-30T23:22:05.600Z,54.60
2019-03-30T23:24:34.823Z,50.90
2019-03-30T23:27:04.044Z,51.35
2019-03-30T23:29:33.280Z,47.35
2019-03-30T23:32:02.509Z,46.23
2019-03-30T23:34:31.700Z,46.85
2019-03-30T23:37:00.941Z,50.25
2019-03-30T23:39:30.158Z,52.43
2019-03-30T23:41:59.411Z,54.03
2019-03-30T23:44:28.636Z,48.13
2019-03-30T23:46:57.872Z,47.33
2019-03-30T23:49:27.119Z,44.88
2019-03-30T23:51:56.326Z,51.85
2019-03-30T23:54:25.563Z,54.65
2019-03-30T23:56:55.095Z,53.30
2019-03-30T23:59:24.304Z,55.85
